Byron, California
Current Conditions -  °F | °C
As of 2:53 PM on Thursday 18 Dec 2014 (Local Time) from KLVK Reporting Station
Broken Clouds Broken Clouds  
Wind Chill: 58°   Ceiling: 4800
Heat Index: 58°   Visibility: 10mi
Dew Point: 50°   Wind: 9mph
Humidity: 75%   Direction: 60°ENE
Pressure: 30.13"   Gusts: NA
Location:  37.87°N, 121.64°W
Report Text: KLVK 182253Z 06008KT 10SM BKN048 14/10 A3013 RMK AO2 SLP202 T01440100
Loading
Personal Weather Stations






























Interactive Weather Map New forecast layout! Learn more

10-Day Weather Forecast

Advertisements
Track Severe Weather on mobile